OIAI  Shahid Asyaee Airport

Add Bookmark

Iran

Status
Operational
Latitude Longitude
32° 0' 8" N 49° 16' 13" E
32.002399 49.270401
Local (DST + 5) UTC (GMT + 4)
Aug 21, 2014 04:51 Aug 21, 2014 00:21
Sunrise-Sunset Local UTC
Begin Civil Twilight 06:14 01:44
Sunrise 06:40 02:10
Sunset 07:51 15:21
End Civil Twilight 08:17 15:47

Current Weather

METAR Observed VFR
OIAI 201900Z 13008KT 9999 FEW040 SCT090 39/10 Q1005 Wed, Aug 20, 2014 @ 19:00 UTC
(5 Hours, 21 Minutes ago)
Visual Flight Rules
Wind Visibility Clouds Conditions
130° at 8 knots (15 kph) 10 km or more
  • Few at 4,000' AGL
  • Scattered at 9,000' AGL
  • No significant weather
Temperatures Readings Precipitation
Current Temp 39°C (102°F)
Dewpoint 10°C (50°F)
Humidity 17%
Altimeter 29.68"Hg
Sea Level Pressure 1005mb
Field Elevation 1220.47'
None Recorded

Additional weather within a 92.6km radius of OIAI

Map ICAO Location
OIAW 88.2km S (213°)

24 Hour Weather History

Loading
-

24 Hour Weather Graphs

Loading
-

CheckWX.com is intended as a tool to help pilots better visualize weather data. It is not intended as a substitute for an official weather briefing obtained from a Flight Service Station. CheckWX.com does not meet the FAA requirements for an official pre-flight weather briefing. Therefore, it's important that pilots still call and obtain an official FSS pre-flight weather briefing.